Time;durP1;ratioP1;P1;durP2;ratioP2;P2;SDS_P1;SDS_P2;PMS_P1;PMS_P2;Temp;Humidity;BMP_temperature;BMP_pressure;BME280_temperature;BME280_humidity;BME280_pressure;Samples;Min_cycle;Max_cycle;Signal;HPM_P1;HPM_P2
2022/03/06 00:00:13;;;;;;;4.93;4.50;;;;;;;;;;6220617;28;20623;-69
2022/03/06 00:03:35;;;;;;;5.90;4.17;;;;;;;;;;6197034;28;20228;-71
2022/03/06 00:06:58;;;;;;;5.27;3.80;;;;;;;;;;6219387;28;20249;-69
2022/03/06 00:10:19;;;;;;;4.70;4.20;;;;;;;;;;6212483;28;20258;-70
2022/03/06 00:13:39;;;;;;;4.30;3.90;;;;;;;;;;6218373;28;20654;-69
2022/03/06 00:17:01;;;;;;;6.10;4.20;;;;;;;;;;6197823;28;20577;-69
2022/03/06 00:20:22;;;;;;;5.40;4.10;;;;;;;;;;6226151;28;20265;-68
2022/03/06 00:23:43;;;;;;;7.30;4.37;;;;;;;;;;6221963;28;21037;-70
2022/03/06 00:27:04;;;;;;;4.50;4.07;;;;;;;;;;6230967;28;20621;-69
2022/03/06 00:30:25;;;;;;;6.57;3.73;;;;;;;;;;6218200;28;20501;-69
2022/03/06 00:33:47;;;;;;;3.90;3.60;;;;;;;;;;6233257;28;20229;-70
2022/03/06 00:37:08;;;;;;;5.47;3.47;;;;;;;;;;6227917;28;20228;-69
2022/03/06 00:40:29;;;;;;;5.20;4.03;;;;;;;;;;6223592;28;20232;-69
2022/03/06 00:43:49;;;;;;;5.37;3.23;;;;;;;;;;6227265;28;20231;-69
2022/03/06 00:47:16;;;;;;;3.67;3.20;;;;;;;;;;6233631;28;20319;-69
2022/03/06 00:50:41;;;;;;;4.17;3.53;;;;;;;;;;6237144;28;20219;-69
2022/03/06 00:54:01;;;;;;;5.97;3.30;;;;;;;;;;6233590;28;20224;-69
2022/03/06 00:57:22;;;;;;;3.70;3.37;;;;;;;;;;6232725;28;20252;-69
2022/03/06 01:00:46;;;;;;;5.57;4.50;;;;;;;;;;6231148;28;20232;-70
2022/03/06 01:04:07;;;;;;;6.90;4.03;;;;;;;;;;6230663;28;20232;-70
2022/03/06 01:07:29;;;;;;;5.57;4.27;;;;;;;;;;6233751;28;20585;-71
2022/03/06 01:10:51;;;;;;;5.60;3.50;;;;;;;;;;6236868;28;20232;-69
2022/03/06 01:14:12;;;;;;;6.13;4.63;;;;;;;;;;6228481;28;20228;-68
2022/03/06 01:17:33;;;;;;;5.33;4.50;;;;;;;;;;6232719;28;20232;-68
2022/03/06 01:20:54;;;;;;;6.17;4.70;;;;;;;;;;6235997;28;20243;-69
2022/03/06 01:24:16;;;;;;;6.63;5.60;;;;;;;;;;6238184;28;20236;-68
2022/03/06 01:27:37;;;;;;;5.03;4.17;;;;;;;;;;6238081;28;20224;-68
2022/03/06 01:30:58;;;;;;;5.17;4.40;;;;;;;;;;6231163;28;20232;-69
2022/03/06 01:34:19;;;;;;;4.90;4.53;;;;;;;;;;6231846;28;20365;-68
2022/03/06 01:37:40;;;;;;;5.43;4.60;;;;;;;;;;6232816;28;20607;-68
2022/03/06 01:41:03;;;;;;;4.90;4.43;;;;;;;;;;6228430;28;20580;-68
2022/03/06 01:44:24;;;;;;;5.47;4.97;;;;;;;;;;6226710;28;20621;-67
2022/03/06 01:47:47;;;;;;;5.10;4.57;;;;;;;;;;6236489;28;21125;-68
2022/03/06 01:51:08;;;;;;;7.40;4.83;;;;;;;;;;6234284;28;20801;-69
2022/03/06 01:54:29;;;;;;;5.50;4.50;;;;;;;;;;6235897;28;20217;-69
2022/03/06 01:57:53;;;;;;;5.77;4.53;;;;;;;;;;6236605;28;20240;-69
2022/03/06 02:01:14;;;;;;;6.67;5.10;;;;;;;;;;6231739;28;20237;-70
2022/03/06 02:04:35;;;;;;;5.07;4.23;;;;;;;;;;6237556;28;20224;-69
2022/03/06 02:07:56;;;;;;;6.23;5.33;;;;;;;;;;6236724;28;20240;-68
2022/03/06 02:11:17;;;;;;;5.10;4.07;;;;;;;;;;6232237;28;20228;-68
2022/03/06 02:14:39;;;;;;;5.93;5.03;;;;;;;;;;6231330;28;20837;-69
2022/03/06 02:18:00;;;;;;;5.47;4.97;;;;;;;;;;6231850;28;20602;-68
2022/03/06 02:21:23;;;;;;;5.10;4.37;;;;;;;;;;6236624;28;20713;-68
2022/03/06 02:24:43;;;;;;;5.23;4.57;;;;;;;;;;6236594;28;20233;-68
2022/03/06 02:28:06;;;;;;;5.90;4.60;;;;;;;;;;6235994;28;20236;-68
2022/03/06 02:31:28;;;;;;;7.43;4.97;;;;;;;;;;6234610;28;20236;-68
2022/03/06 02:34:50;;;;;;;4.50;3.90;;;;;;;;;;6236952;28;20232;-70
2022/03/06 02:38:12;;;;;;;7.23;4.47;;;;;;;;;;6226614;28;20237;-69
2022/03/06 02:41:35;;;;;;;5.03;4.60;;;;;;;;;;6234086;28;20232;-68
2022/03/06 02:44:58;;;;;;;5.83;4.53;;;;;;;;;;6236654;28;20232;-68
2022/03/06 02:48:20;;;;;;;5.47;4.37;;;;;;;;;;6234693;28;20236;-69
2022/03/06 02:51:43;;;;;;;4.50;3.80;;;;;;;;;;6237210;28;20496;-69
2022/03/06 02:55:07;;;;;;;4.63;4.23;;;;;;;;;;6233050;28;20232;-68
2022/03/06 02:58:28;;;;;;;5.67;4.50;;;;;;;;;;6232941;28;20255;-68
2022/03/06 03:01:49;;;;;;;7.90;4.80;;;;;;;;;;6233544;28;20319;-69
2022/03/06 03:05:12;;;;;;;4.97;4.47;;;;;;;;;;6234800;28;20774;-69
2022/03/06 03:08:33;;;;;;;5.30;4.00;;;;;;;;;;6236253;28;20319;-68
2022/03/06 03:11:55;;;;;;;5.50;3.70;;;;;;;;;;6234053;28;20233;-69
2022/03/06 03:15:16;;;;;;;4.93;4.10;;;;;;;;;;6235418;28;20233;-68
2022/03/06 03:18:38;;;;;;;4.90;4.23;;;;;;;;;;6237478;28;20232;-68
2022/03/06 03:21:58;;;;;;;4.97;4.07;;;;;;;;;;6235770;28;20232;-69
2022/03/06 03:25:19;;;;;;;4.50;4.10;;;;;;;;;;6233034;28;20232;-68
2022/03/06 03:28:42;;;;;;;3.70;3.40;;;;;;;;;;6234890;28;20527;-68
2022/03/06 03:32:02;;;;;;;4.20;3.80;;;;;;;;;;6233851;28;20224;-70
2022/03/06 03:35:23;;;;;;;3.97;3.63;;;;;;;;;;6234448;28;20232;-70
2022/03/06 03:38:45;;;;;;;4.57;3.73;;;;;;;;;;6226139;28;20228;-70
2022/03/06 03:42:07;;;;;;;5.07;4.13;;;;;;;;;;6233757;28;20271;-69
2022/03/06 03:45:30;;;;;;;3.93;3.50;;;;;;;;;;6231765;28;20248;-68
2022/03/06 03:48:51;;;;;;;4.00;3.63;;;;;;;;;;6233851;28;20237;-68
2022/03/06 03:52:11;;;;;;;5.37;3.73;;;;;;;;;;6230862;28;20232;-68
2022/03/06 03:55:32;;;;;;;3.33;2.97;;;;;;;;;;6204809;28;20225;-68
2022/03/06 03:58:53;;;;;;;3.80;3.33;;;;;;;;;;6237506;28;20224;-68
2022/03/06 04:02:15;;;;;;;4.70;3.70;;;;;;;;;;6233661;28;20811;-69
2022/03/06 04:05:36;;;;;;;4.57;3.70;;;;;;;;;;6233662;28;20225;-69
2022/03/06 04:08:57;;;;;;;4.67;3.40;;;;;;;;;;6230866;28;20255;-69
2022/03/06 04:12:18;;;;;;;4.63;3.63;;;;;;;;;;6232450;28;20351;-68
2022/03/06 04:15:39;;;;;;;3.90;3.07;;;;;;;;;;6231516;28;20229;-69
2022/03/06 04:19:01;;;;;;;3.53;3.23;;;;;;;;;;6236485;28;20625;-69
2022/03/06 04:22:21;;;;;;;3.73;3.23;;;;;;;;;;6236275;28;20236;-68
2022/03/06 04:25:42;;;;;;;6.30;3.17;;;;;;;;;;6228941;28;20228;-68
2022/03/06 04:29:04;;;;;;;2.93;2.30;;;;;;;;;;6230534;28;20318;-69
2022/03/06 04:32:25;;;;;;;2.80;2.60;;;;;;;;;;6231073;28;20232;-68
2022/03/06 04:35:47;;;;;;;4.03;2.33;;;;;;;;;;6232345;28;20237;-68
2022/03/06 04:39:08;;;;;;;3.23;2.40;;;;;;;;;;6232109;28;20229;-68
2022/03/06 04:42:29;;;;;;;3.37;3.07;;;;;;;;;;6233267;28;20233;-68
2022/03/06 04:45:50;;;;;;;3.80;2.90;;;;;;;;;;6215555;28;20241;-69
2022/03/06 04:49:10;;;;;;;2.80;2.60;;;;;;;;;;6232859;28;20651;-69
2022/03/06 04:52:33;;;;;;;3.03;2.80;;;;;;;;;;6233616;28;20240;-69
2022/03/06 04:55:53;;;;;;;3.77;2.50;;;;;;;;;;6231935;28;20256;-68
2022/03/06 04:59:14;;;;;;;2.50;2.30;;;;;;;;;;6234341;28;20229;-68
2022/03/06 05:02:35;;;;;;;3.23;2.93;;;;;;;;;;6230571;28;20232;-69
2022/03/06 05:05:56;;;;;;;3.80;2.50;;;;;;;;;;6231541;28;20713;-69
2022/03/06 05:09:19;;;;;;;2.17;2.03;;;;;;;;;;6229511;28;20587;-68
2022/03/06 05:12:41;;;;;;;4.67;3.20;;;;;;;;;;6234103;28;21936;-69
2022/03/06 05:16:02;;;;;;;3.07;2.83;;;;;;;;;;6230833;28;20224;-67
2022/03/06 05:19:23;;;;;;;2.20;2.00;;;;;;;;;;6233391;28;20232;-67
2022/03/06 05:22:43;;;;;;;2.93;2.33;;;;;;;;;;6234039;28;20236;-69
2022/03/06 05:26:06;;;;;;;4.60;3.37;;;;;;;;;;6233245;28;20232;-68
2022/03/06 05:29:26;;;;;;;2.50;2.30;;;;;;;;;;6232329;28;20248;-68
2022/03/06 05:32:47;;;;;;;2.47;2.20;;;;;;;;;;6232529;28;20232;-68
2022/03/06 05:36:09;;;;;;;3.47;2.17;;;;;;;;;;6230019;28;20236;-69
2022/03/06 05:39:29;;;;;;;2.77;2.57;;;;;;;;;;6234345;28;20229;-69
2022/03/06 05:42:51;;;;;;;3.87;2.87;;;;;;;;;;6232102;28;20507;-68
2022/03/06 05:46:12;;;;;;;6.77;2.77;;;;;;;;;;6226987;28;20544;-67
2022/03/06 05:49:33;;;;;;;4.23;2.67;;;;;;;;;;6237616;28;20232;-67
2022/03/06 05:52:54;;;;;;;3.30;3.00;;;;;;;;;;6238808;28;20229;-68
2022/03/06 05:56:15;;;;;;;3.47;2.73;;;;;;;;;;6234033;28;20233;-69
2022/03/06 05:59:37;;;;;;;2.40;2.20;;;;;;;;;;6238275;28;20232;-69
2022/03/06 06:02:58;;;;;;;3.57;3.27;;;;;;;;;;6236142;28;20248;-68
2022/03/06 06:06:19;;;;;;;2.93;2.47;;;;;;;;;;6236351;28;20717;-68
2022/03/06 06:09:39;;;;;;;2.70;2.50;;;;;;;;;;6234001;28;20274;-68
2022/03/06 06:13:00;;;;;;;4.50;2.80;;;;;;;;;;6238926;28;20343;-69
2022/03/06 06:16:22;;;;;;;3.37;3.07;;;;;;;;;;6234487;28;20578;-67
2022/03/06 06:19:44;;;;;;;3.90;2.77;;;;;;;;;;6236831;28;20232;-68
2022/03/06 06:23:04;;;;;;;5.53;3.40;;;;;;;;;;6238828;28;20304;-69
2022/03/06 06:26:25;;;;;;;3.50;2.90;;;;;;;;;;6239211;28;20232;-69
2022/03/06 06:29:46;;;;;;;3.97;3.00;;;;;;;;;;6240504;28;20225;-68
2022/03/06 06:33:09;;;;;;;5.20;2.90;;;;;;;;;;6239211;28;20540;-68
2022/03/06 06:36:29;;;;;;;3.00;2.80;;;;;;;;;;6238495;28;20213;-68
2022/03/06 06:39:50;;;;;;;3.40;3.10;;;;;;;;;;6240433;28;20224;-70
2022/03/06 06:43:11;;;;;;;3.80;2.80;;;;;;;;;;6238098;28;20224;-68
2022/03/06 06:46:33;;;;;;;6.43;3.87;;;;;;;;;;6234522;28;20225;-68
2022/03/06 06:49:55;;;;;;;4.33;2.90;;;;;;;;;;6241096;28;20783;-69
2022/03/06 06:53:17;;;;;;;3.07;2.77;;;;;;;;;;6240828;28;20630;-69
2022/03/06 06:56:38;;;;;;;4.03;3.73;;;;;;;;;;6234111;28;20229;-69
2022/03/06 06:59:59;;;;;;;3.27;2.97;;;;;;;;;;6235064;28;20232;-69
2022/03/06 07:03:19;;;;;;;3.17;2.97;;;;;;;;;;6233258;28;20236;-69
2022/03/06 07:06:41;;;;;;;3.07;2.77;;;;;;;;;;6217630;28;20263;-69
2022/03/06 07:10:02;;;;;;;5.07;3.47;;;;;;;;;;6230531;28;20783;-68
2022/03/06 07:13:25;;;;;;;5.60;3.67;;;;;;;;;;6238716;28;20508;-69
2022/03/06 07:16:46;;;;;;;6.93;3.90;;;;;;;;;;6234882;28;20228;-69
2022/03/06 07:20:08;;;;;;;3.50;3.20;;;;;;;;;;6238968;28;20237;-69
2022/03/06 07:23:30;;;;;;;3.23;2.80;;;;;;;;;;6236894;28;20248;-68
2022/03/06 07:26:51;;;;;;;4.93;4.33;;;;;;;;;;6229093;28;20232;-69
2022/03/06 07:30:13;;;;;;;3.73;3.43;;;;;;;;;;6229461;28;20232;-68
2022/03/06 07:33:33;;;;;;;3.17;2.97;;;;;;;;;;6231446;28;20228;-68
2022/03/06 07:36:54;;;;;;;4.00;3.60;;;;;;;;;;6233291;28;20237;-69
2022/03/06 07:40:18;;;;;;;5.87;3.73;;;;;;;;;;6237890;28;20228;-68
2022/03/06 07:43:38;;;;;;;2.83;2.63;;;;;;;;;;6231619;28;20236;-68
2022/03/06 07:46:59;;;;;;;4.50;3.83;;;;;;;;;;6228361;28;20239;-69
2022/03/06 07:50:20;;;;;;;3.23;2.70;;;;;;;;;;6230629;28;20224;-68
2022/03/06 07:53:41;;;;;;;3.00;2.70;;;;;;;;;;6232163;28;20327;-69
2022/03/06 07:57:03;;;;;;;4.23;2.97;;;;;;;;;;6230246;28;20261;-68
2022/03/06 08:00:26;;;;;;;3.60;3.30;;;;;;;;;;6231193;28;20359;-69
2022/03/06 08:03:47;;;;;;;5.93;4.03;;;;;;;;;;6231902;28;20525;-69
2022/03/06 08:07:08;;;;;;;4.50;3.13;;;;;;;;;;6232181;28;20236;-70
2022/03/06 08:10:28;;;;;;;6.00;3.63;;;;;;;;;;6232893;28;20649;-68
2022/03/06 08:13:51;;;;;;;2.70;2.50;;;;;;;;;;6229260;28;20781;-68
2022/03/06 08:17:12;;;;;;;2.83;2.60;;;;;;;;;;6231534;28;20228;-69
2022/03/06 08:20:33;;;;;;;4.83;2.90;;;;;;;;;;6234493;28;20232;-69
2022/03/06 08:23:54;;;;;;;2.27;2.07;;;;;;;;;;6214952;28;20332;-68
2022/03/06 08:27:14;;;;;;;4.67;2.57;;;;;;;;;;6230164;28;20224;-68
2022/03/06 08:30:36;;;;;;;3.60;3.00;;;;;;;;;;6233204;28;20564;-68
2022/03/06 08:33:57;;;;;;;2.80;2.53;;;;;;;;;;6227749;28;20236;-68
2022/03/06 08:37:18;;;;;;;6.03;3.27;;;;;;;;;;6228634;28;20236;-70
2022/03/06 08:40:39;;;;;;;3.07;2.87;;;;;;;;;;6231996;28;20237;-71
2022/03/06 08:44:00;;;;;;;4.10;2.20;;;;;;;;;;6231604;28;20228;-68
2022/03/06 08:47:23;;;;;;;3.80;2.80;;;;;;;;;;6209794;28;20327;-69
2022/03/06 08:50:43;;;;;;;5.90;3.30;;;;;;;;;;6234884;28;20229;-69
2022/03/06 08:54:04;;;;;;;3.57;2.43;;;;;;;;;;6237758;28;20228;-69
2022/03/06 08:57:25;;;;;;;3.03;2.10;;;;;;;;;;6233983;28;20237;-69
2022/03/06 09:00:46;;;;;;;3.33;2.60;;;;;;;;;;6227247;28;20224;-68
2022/03/06 09:04:09;;;;;;;2.17;1.90;;;;;;;;;;6225806;28;20240;-70
2022/03/06 09:07:30;;;;;;;2.43;1.70;;;;;;;;;;6219473;28;20320;-69
2022/03/06 09:10:50;;;;;;;3.93;2.27;;;;;;;;;;6234685;28;20259;-69
2022/03/06 09:14:11;;;;;;;3.60;2.63;;;;;;;;;;6223517;28;20240;-68
2022/03/06 09:17:32;;;;;;;3.00;2.80;;;;;;;;;;6224993;28;20233;-70
2022/03/06 09:20:55;;;;;;;4.40;4.00;;;;;;;;;;6221371;28;20241;-69
2022/03/06 09:24:15;;;;;;;12.93;11.43;;;;;;;;;;6223758;28;20237;-69
2022/03/06 09:27:36;;;;;;;3.30;2.83;;;;;;;;;;6225333;28;20319;-69
2022/03/06 09:30:57;;;;;;;2.87;2.47;;;;;;;;;;6230629;28;20236;-70
2022/03/06 09:34:18;;;;;;;3.20;2.90;;;;;;;;;;6227518;28;20224;-68
2022/03/06 09:37:40;;;;;;;2.57;1.93;;;;;;;;;;6214653;28;20231;-68
2022/03/06 09:41:05;;;;;;;2.67;2.47;;;;;;;;;;6216903;28;20232;-70
2022/03/06 09:44:27;;;;;;;5.63;2.60;;;;;;;;;;6210925;28;20883;-70
2022/03/06 09:47:48;;;;;;;2.57;1.80;;;;;;;;;;6230689;28;20240;-68
2022/03/06 09:51:09;;;;;;;2.77;2.23;;;;;;;;;;6234807;28;20228;-70
2022/03/06 09:54:31;;;;;;;4.40;2.83;;;;;;;;;;6233260;28;20543;-69
2022/03/06 09:57:53;;;;;;;3.47;2.60;;;;;;;;;;6228272;28;20225;-69
2022/03/06 10:01:14;;;;;;;3.07;2.73;;;;;;;;;;6235010;28;20346;-69
2022/03/06 10:04:36;;;;;;;2.53;2.33;;;;;;;;;;6236397;28;20237;-68
2022/03/06 10:08:20;;;;;;;4.00;2.70;;;;;;;;;;6240296;28;20256;-68
2022/03/06 10:11:42;;;;;;;2.90;2.57;;;;;;;;;;6232910;28;20229;-69
2022/03/06 10:15:05;;;;;;;2.50;2.30;;;;;;;;;;6230949;28;20248;-70
2022/03/06 10:18:26;;;;;;;2.37;2.13;;;;;;;;;;6227841;28;20221;-69
2022/03/06 10:21:47;;;;;;;8.63;7.07;;;;;;;;;;6237107;28;20718;-75
2022/03/06 10:25:09;;;;;;;2.47;2.27;;;;;;;;;;6200363;28;20249;-69
2022/03/06 10:28:32;;;;;;;2.97;2.37;;;;;;;;;;6240984;28;20228;-71
2022/03/06 10:31:54;;;;;;;2.70;2.50;;;;;;;;;;6239517;28;20236;-71
2022/03/06 10:35:15;;;;;;;2.17;1.97;;;;;;;;;;6238485;28;20281;-70
2022/03/06 10:38:37;;;;;;;3.00;2.40;;;;;;;;;;6238318;28;20228;-70
2022/03/06 10:41:58;;;;;;;2.17;2.00;;;;;;;;;;6242173;28;20715;-71
2022/03/06 10:45:29;;;;;;;3.40;2.53;;;;;;;;;;6234374;28;20612;-71
2022/03/06 10:48:55;;;;;;;2.67;2.00;;;;;;;;;;6231921;28;20315;-69
2022/03/06 10:52:19;;;;;;;2.22;1.58;;;;;;;;;;6220561;28;20599;-71
2022/03/06 10:55:40;;;;;;;2.47;1.75;;;;;;;;;;6231174;28;20241;-73
2022/03/06 10:59:03;;;;;;;3.15;2.03;;;;;;;;;;6230859;28;20252;-70
2022/03/06 11:02:26;;;;;;;4.47;2.25;;;;;;;;;;6231728;28;20634;-71
2022/03/06 11:05:48;;;;;;;2.35;1.85;;;;;;;;;;6230058;28;20232;-70
2022/03/06 11:09:13;;;;;;;5.32;2.10;;;;;;;;;;6206738;28;20243;-71
2022/03/06 11:12:36;;;;;;;2.38;1.85;;;;;;;;;;6228990;28;20303;-70
2022/03/06 11:15:57;;;;;;;2.38;2.00;;;;;;;;;;6226924;28;20232;-71
2022/03/06 11:19:20;;;;;;;3.92;2.05;;;;;;;;;;6229056;28;20236;-70
2022/03/06 11:22:46;;;;;;;2.13;1.70;;;;;;;;;;6227588;28;20232;-69
2022/03/06 11:26:41;;;;;;;3.00;1.98;;;;;;;;;;6238376;28;20252;-69
2022/03/06 11:30:11;;;;;;;2.85;2.60;;;;;;;;;;6242202;28;20224;-70
2022/03/06 11:33:32;;;;;;;17.50;16.00;;;;;;;;;;6237359;28;20232;-70
2022/03/06 11:36:55;;;;;;;3.88;2.88;;;;;;;;;;6231970;28;20257;-72
2022/03/06 11:40:45;;;;;;;3.15;2.15;;;;;;;;;;6230707;28;20221;-70
2022/03/06 11:44:33;;;;;;;2.40;2.30;;;;;;;;;;6217272;28;20236;-73
2022/03/06 11:47:54;;;;;;;2.47;1.83;;;;;;;;;;6225237;28;20232;-72
2022/03/06 11:51:20;;;;;;;3.50;2.85;;;;;;;;;;6234988;28;20649;-69
2022/03/06 11:54:44;;;;;;;2.78;2.45;;;;;;;;;;6236733;28;20243;-72
2022/03/06 11:58:05;;;;;;;3.25;2.35;;;;;;;;;;6233647;28;20241;-70
2022/03/06 12:01:26;;;;;;;4.18;2.30;;;;;;;;;;6238923;28;20308;-71
2022/03/06 12:04:52;;;;;;;2.60;2.35;;;;;;;;;;6238788;28;20559;-72
2022/03/06 12:08:14;;;;;;;2.65;2.40;;;;;;;;;;6233347;28;20755;-72
2022/03/06 12:11:38;;;;;;;2.50;2.22;;;;;;;;;;6236156;28;20312;-72
2022/03/06 12:14:59;;;;;;;3.85;3.20;;;;;;;;;;6237272;28;20574;-72
2022/03/06 12:18:20;;;;;;;4.87;3.07;;;;;;;;;;6238872;28;20220;-72
2022/03/06 12:21:41;;;;;;;3.47;2.80;;;;;;;;;;6241340;28;20518;-68
2022/03/06 12:25:34;;;;;;;3.17;2.87;;;;;;;;;;6234964;28;20236;-71
2022/03/06 12:28:57;;;;;;;3.03;2.80;;;;;;;;;;6229070;28;20492;-71
2022/03/06 12:32:34;;;;;;;5.17;3.10;;;;;;;;;;6233803;28;20232;-68
2022/03/06 12:36:09;;;;;;;3.73;3.07;;;;;;;;;;6211873;28;20229;-72
2022/03/06 12:39:29;;;;;;;8.67;7.13;;;;;;;;;;6237052;28;20235;-73
2022/03/06 12:42:51;;;;;;;5.07;4.57;;;;;;;;;;6232152;28;20504;-72
2022/03/06 12:46:15;;;;;;;4.13;3.80;;;;;;;;;;6231066;28;20668;-73
2022/03/06 12:49:35;;;;;;;7.97;6.90;;;;;;;;;;6239821;28;20473;-73
2022/03/06 12:52:58;;;;;;;9.63;8.20;;;;;;;;;;6231981;28;20231;-69
2022/03/06 12:56:30;;;;;;;8.07;5.83;;;;;;;;;;6228675;28;20220;-70
2022/03/06 12:59:51;;;;;;;26.48;23.88;;;;;;;;;;6235926;28;20479;-69
2022/03/06 13:03:14;;;;;;;7.23;6.53;;;;;;;;;;6240067;28;20247;-69
2022/03/06 13:06:35;;;;;;;6.27;5.30;;;;;;;;;;6242496;28;20235;-70
2022/03/06 13:09:56;;;;;;;3.67;3.00;;;;;;;;;;6238099;28;20632;-70
2022/03/06 13:13:17;;;;;;;3.43;3.13;;;;;;;;;;6238038;28;20254;-71
2022/03/06 13:16:38;;;;;;;3.40;3.10;;;;;;;;;;6234715;28;20236;-69
2022/03/06 13:20:01;;;;;;;4.53;3.13;;;;;;;;;;6241894;28;20315;-69
2022/03/06 13:23:22;;;;;;;4.50;3.83;;;;;;;;;;6235711;28;20255;-70
2022/03/06 13:26:43;;;;;;;3.83;2.90;;;;;;;;;;6233101;28;20327;-69
2022/03/06 13:30:07;;;;;;;4.30;3.83;;;;;;;;;;6228290;28;20240;-70
2022/03/06 13:33:28;;;;;;;4.20;3.47;;;;;;;;;;6232826;28;20260;-70
2022/03/06 13:36:50;;;;;;;3.73;2.73;;;;;;;;;;6229058;28;20228;-70
2022/03/06 13:40:14;;;;;;;3.40;3.10;;;;;;;;;;6230618;28;20545;-70
2022/03/06 13:43:36;;;;;;;3.97;3.57;;;;;;;;;;6232598;28;20621;-70
2022/03/06 13:46:58;;;;;;;6.67;4.33;;;;;;;;;;6214963;28;20228;-70
2022/03/06 13:50:20;;;;;;;3.50;3.20;;;;;;;;;;6232230;28;20327;-69
2022/03/06 13:53:54;;;;;;;3.47;2.83;;;;;;;;;;6228025;28;20607;-70
2022/03/06 13:57:15;;;;;;;4.30;3.37;;;;;;;;;;6234622;28;20220;-69
2022/03/06 14:00:41;;;;;;;5.70;3.23;;;;;;;;;;6243706;28;20547;-70
2022/03/06 14:04:06;;;;;;;4.70;3.23;;;;;;;;;;6242688;28;20244;-70
2022/03/06 14:07:27;;;;;;;3.30;3.00;;;;;;;;;;6242056;28;20291;-69
2022/03/06 14:10:51;;;;;;;4.83;3.60;;;;;;;;;;6241409;28;20225;-70
2022/03/06 14:14:12;;;;;;;5.37;4.00;;;;;;;;;;6240763;28;20240;-69
2022/03/06 14:17:33;;;;;;;5.03;2.87;;;;;;;;;;6238351;28;20633;-70
2022/03/06 14:20:54;;;;;;;4.07;3.10;;;;;;;;;;6241126;28;20225;-70
2022/03/06 14:24:17;;;;;;;4.20;3.27;;;;;;;;;;6242797;28;20232;-69
2022/03/06 14:27:39;;;;;;;5.37;3.73;;;;;;;;;;6238670;28;20225;-70
2022/03/06 14:31:00;;;;;;;3.77;2.80;;;;;;;;;;6241388;28;20232;-70
2022/03/06 14:34:22;;;;;;;4.00;3.37;;;;;;;;;;6235083;28;20634;-70
2022/03/06 14:37:43;;;;;;;4.40;3.43;;;;;;;;;;6237372;28;20232;-69
2022/03/06 14:41:04;;;;;;;6.03;3.60;;;;;;;;;;6241945;28;20247;-69
2022/03/06 14:44:27;;;;;;;3.67;3.13;;;;;;;;;;6235162;28;21729;-70
2022/03/06 14:47:49;;;;;;;4.90;2.90;;;;;;;;;;6234729;28;20613;-69
2022/03/06 14:51:10;;;;;;;3.80;2.83;;;;;;;;;;6234067;28;20236;-70
2022/03/06 14:54:31;;;;;;;3.70;2.67;;;;;;;;;;6239109;28;20749;-69
2022/03/06 14:57:52;;;;;;;4.60;3.57;;;;;;;;;;6234135;28;20634;-70
2022/03/06 15:01:15;;;;;;;4.13;3.73;;;;;;;;;;6237591;28;20617;-70
2022/03/06 15:04:36;;;;;;;4.00;3.67;;;;;;;;;;6229652;28;20240;-69
2022/03/06 15:07:57;;;;;;;3.53;3.03;;;;;;;;;;6227715;28;21527;-70
2022/03/06 15:11:18;;;;;;;6.13;3.63;;;;;;;;;;6225760;28;20327;-68
2022/03/06 15:14:39;;;;;;;5.07;3.70;;;;;;;;;;6226946;28;20232;-69
2022/03/06 15:18:03;;;;;;;3.13;2.73;;;;;;;;;;6229378;28;20248;-70
2022/03/06 15:21:24;;;;;;;6.67;4.03;;;;;;;;;;6237275;28;20236;-70
2022/03/06 15:24:44;;;;;;;2.83;2.63;;;;;;;;;;6232267;28;20232;-69
2022/03/06 15:28:08;;;;;;;5.43;3.37;;;;;;;;;;6240532;28;20236;-68
2022/03/06 15:31:29;;;;;;;5.17;3.17;;;;;;;;;;6237189;28;20236;-70
2022/03/06 15:34:51;;;;;;;4.73;2.83;;;;;;;;;;6240059;28;20232;-70
2022/03/06 15:38:12;;;;;;;3.87;3.47;;;;;;;;;;6243157;28;20262;-69
2022/03/06 15:41:33;;;;;;;4.37;2.80;;;;;;;;;;6237442;28;20228;-70
2022/03/06 15:44:54;;;;;;;4.20;3.07;;;;;;;;;;6238030;28;20316;-69
2022/03/06 15:48:16;;;;;;;3.80;3.43;;;;;;;;;;6239298;28;20585;-70
2022/03/06 15:51:38;;;;;;;4.70;3.47;;;;;;;;;;6230357;28;20600;-70
2022/03/06 15:55:00;;;;;;;6.50;3.37;;;;;;;;;;6235388;28;20232;-71
2022/03/06 15:58:21;;;;;;;4.37;3.93;;;;;;;;;;6222137;28;20327;-70
2022/03/06 16:01:42;;;;;;;4.70;3.20;;;;;;;;;;6214115;28;20540;-70
2022/03/06 16:05:03;;;;;;;6.27;3.70;;;;;;;;;;6239424;28;20236;-70
2022/03/06 16:08:25;;;;;;;4.87;3.60;;;;;;;;;;6234147;28;20323;-69
2022/03/06 16:11:46;;;;;;;3.30;3.00;;;;;;;;;;6236752;28;20319;-71
2022/03/06 16:15:07;;;;;;;4.93;4.07;;;;;;;;;;6237800;28;20228;-70
2022/03/06 16:18:28;;;;;;;4.60;3.10;;;;;;;;;;6233584;28;20244;-70
2022/03/06 16:21:49;;;;;;;4.47;3.50;;;;;;;;;;6236314;28;20224;-69
2022/03/06 16:25:12;;;;;;;6.67;3.67;;;;;;;;;;6237956;28;20533;-70
2022/03/06 16:28:32;;;;;;;3.90;3.27;;;;;;;;;;6232626;28;20236;-69
2022/03/06 16:31:53;;;;;;;5.17;3.47;;;;;;;;;;6234876;28;20504;-69
2022/03/06 16:35:14;;;;;;;4.57;3.07;;;;;;;;;;6237972;28;20232;-69
2022/03/06 16:38:37;;;;;;;6.20;3.43;;;;;;;;;;6239316;28;20228;-69
2022/03/06 16:42:00;;;;;;;3.90;3.00;;;;;;;;;;6236209;28;20232;-70
2022/03/06 16:45:21;;;;;;;5.03;3.30;;;;;;;;;;6235329;28;20229;-70
2022/03/06 16:48:42;;;;;;;4.97;3.17;;;;;;;;;;6235151;28;20751;-69
2022/03/06 16:52:04;;;;;;;4.30;3.30;;;;;;;;;;6239550;28;20989;-70
2022/03/06 16:55:24;;;;;;;4.57;3.63;;;;;;;;;;6237006;28;20224;-70
2022/03/06 16:58:48;;;;;;;6.83;3.30;;;;;;;;;;6235574;28;20216;-69
2022/03/06 17:02:10;;;;;;;3.43;2.73;;;;;;;;;;6237993;28;20228;-71
2022/03/06 17:05:31;;;;;;;3.70;3.37;;;;;;;;;;6237609;28;20493;-70
2022/03/06 17:08:52;;;;;;;6.30;3.83;;;;;;;;;;6238560;28;20240;-70
2022/03/06 17:12:13;;;;;;;5.70;3.83;;;;;;;;;;6226121;28;20225;-70
2022/03/06 17:15:35;;;;;;;3.37;3.07;;;;;;;;;;6233706;28;20228;-70
2022/03/06 17:18:55;;;;;;;3.63;3.10;;;;;;;;;;6238940;28;20220;-70
2022/03/06 17:22:16;;;;;;;6.30;3.70;;;;;;;;;;6240493;28;20232;-70
2022/03/06 17:25:37;;;;;;;4.53;3.93;;;;;;;;;;6236843;28;20233;-70
2022/03/06 17:28:58;;;;;;;4.17;3.77;;;;;;;;;;6233457;28;20467;-70
2022/03/06 17:32:22;;;;;;;8.57;4.93;;;;;;;;;;6233416;28;20216;-69
2022/03/06 17:35:42;;;;;;;5.53;4.53;;;;;;;;;;6236109;28;20609;-70
2022/03/06 17:39:04;;;;;;;6.00;3.80;;;;;;;;;;6235189;28;20237;-70
2022/03/06 17:42:25;;;;;;;5.43;3.77;;;;;;;;;;6224867;28;20229;-70
2022/03/06 17:45:46;;;;;;;6.33;4.33;;;;;;;;;;6238153;28;20225;-69
2022/03/06 17:49:08;;;;;;;6.27;4.70;;;;;;;;;;6242272;28;20252;-69
2022/03/06 17:52:29;;;;;;;7.90;5.07;;;;;;;;;;6238593;28;20240;-68
2022/03/06 17:55:49;;;;;;;8.10;5.07;;;;;;;;;;6238590;28;20220;-69
2022/03/06 17:59:10;;;;;;;8.87;5.27;;;;;;;;;;6240096;28;20323;-69
2022/03/06 18:02:32;;;;;;;7.50;5.53;;;;;;;;;;6237802;28;20315;-69
2022/03/06 18:05:54;;;;;;;7.83;4.63;;;;;;;;;;6243039;28;20229;-70
2022/03/06 18:09:15;;;;;;;5.13;4.67;;;;;;;;;;6240676;28;20264;-70
2022/03/06 18:12:36;;;;;;;9.37;5.40;;;;;;;;;;6242773;28;20237;-69
2022/03/06 18:15:57;;;;;;;5.60;5.10;;;;;;;;;;6239940;28;20311;-69
2022/03/06 18:19:18;;;;;;;10.03;6.33;;;;;;;;;;6241278;28;20224;-69
2022/03/06 18:22:40;;;;;;;9.03;7.30;;;;;;;;;;6241931;28;20225;-70
2022/03/06 18:26:01;;;;;;;6.83;5.77;;;;;;;;;;6239907;28;20225;-69
2022/03/06 18:29:22;;;;;;;6.50;5.67;;;;;;;;;;6238566;28;20236;-70
2022/03/06 18:32:43;;;;;;;58.07;48.60;;;;;;;;;;6234205;28;20526;-68
2022/03/06 18:36:04;;;;;;;48.57;43.33;;;;;;;;;;6238194;28;20228;-71
2022/03/06 18:39:27;;;;;;;26.30;21.17;;;;;;;;;;6228314;28;20236;-68
2022/03/06 18:42:48;;;;;;;38.07;30.20;;;;;;;;;;6229133;28;20610;-71
2022/03/06 18:46:08;;;;;;;27.30;20.87;;;;;;;;;;6229443;28;20552;-70
2022/03/06 18:49:30;;;;;;;23.17;20.77;;;;;;;;;;6237431;28;20281;-70
2022/03/06 18:52:51;;;;;;;14.93;13.20;;;;;;;;;;6235819;28;20630;-70
2022/03/06 18:56:17;;;;;;;44.67;33.70;;;;;;;;;;6231378;28;20324;-69
2022/03/06 18:59:38;;;;;;;26.20;22.20;;;;;;;;;;6239052;28;20225;-70
2022/03/06 19:02:59;;;;;;;17.00;14.67;;;;;;;;;;6227777;28;20228;-69
2022/03/06 19:06:20;;;;;;;28.33;25.43;;;;;;;;;;6236101;28;20233;-69
2022/03/06 19:09:41;;;;;;;23.73;20.70;;;;;;;;;;6236277;28;20228;-69
2022/03/06 19:13:03;;;;;;;21.10;18.00;;;;;;;;;;6240313;28;20613;-69
2022/03/06 19:16:24;;;;;;;13.60;11.73;;;;;;;;;;6234615;28;20224;-70
2022/03/06 19:19:45;;;;;;;15.77;14.07;;;;;;;;;;6235535;28;20244;-70
2022/03/06 19:23:06;;;;;;;31.77;28.40;;;;;;;;;;6231039;28;20781;-70
2022/03/06 19:26:27;;;;;;;16.03;13.93;;;;;;;;;;6236036;28;20311;-70
2022/03/06 19:29:49;;;;;;;10.17;8.30;;;;;;;;;;6237250;28;20236;-69
2022/03/06 19:33:11;;;;;;;13.87;11.80;;;;;;;;;;6227395;28;20236;-69
2022/03/06 19:36:32;;;;;;;25.03;20.17;;;;;;;;;;6229052;28;20232;-70
2022/03/06 19:39:53;;;;;;;16.70;14.80;;;;;;;;;;6234871;28;20225;-70
2022/03/06 19:43:14;;;;;;;29.30;25.60;;;;;;;;;;6235359;28;20554;-71
2022/03/06 19:46:36;;;;;;;31.43;28.03;;;;;;;;;;6233579;28;20251;-69
2022/03/06 19:49:57;;;;;;;18.73;16.10;;;;;;;;;;6237634;28;20236;-69
2022/03/06 19:53:18;;;;;;;23.90;19.00;;;;;;;;;;6225786;28;20608;-69
2022/03/06 19:56:39;;;;;;;18.30;16.33;;;;;;;;;;6233736;28;21452;-69
2022/03/06 20:00:00;;;;;;;13.13;9.57;;;;;;;;;;6226583;28;20228;-70
2022/03/06 20:03:22;;;;;;;14.43;12.93;;;;;;;;;;6231131;28;20520;-69
2022/03/06 20:06:43;;;;;;;29.93;22.80;;;;;;;;;;6234167;28;20225;-69